METAR Data
IDs: Format: Raw Decoded Include TAF

Data at: 1347 UTC 14 Dec 2019

METAR for:KAIO (Atlantic Muni, IA, US)
Text:KAIO 141335Z AUTO 33014G19KT 10SM OVC014 M07/M08 A2996 RMK AO2
Temperature: -7.0°C ( 19°F)
Dewpoint: -8.0°C ( 18°F) [RH = 93%]
Pressure (altimeter):29.96 inches Hg (1014.6 mb)
Winds:from the NNW (330 degrees) at 16 MPH (14 knots; 7.2 m/s) gusting to 22 MPH (19 knots; 9.8 m/s)
Visibility:10 or more sm (16+ km)
Ceiling:1400 feet AGL
Clouds: overcast cloud deck at 1400 feet AGL
QC Flag:automated observation with no human augmentation